sensor_id;sensor_type;location;lat;lon;timestamp;P1;durP1;ratioP1;P2;durP2;ratioP2
17193;SDS011;8713;48.388;10.928;2022-08-01T05:07:43;2.63;;;1.75;;
17193;SDS011;8713;48.388;10.928;2022-08-01T05:08:53;2.53;;;1.95;;
17193;SDS011;8713;48.388;10.928;2022-08-01T05:10:03;2.50;;;1.98;;
17193;SDS011;8713;48.388;10.928;2022-08-01T05:11:13;3.65;;;1.65;;
17193;SDS011;8713;48.388;10.928;2022-08-01T05:12:23;2.13;;;1.80;;
17193;SDS011;8713;48.388;10.928;2022-08-01T05:13:32;3.60;;;2.00;;
17193;SDS011;8713;48.388;10.928;2022-08-01T05:14:42;2.03;;;1.85;;
17193;SDS011;8713;48.388;10.928;2022-08-01T05:15:51;3.90;;;1.90;;
17193;SDS011;8713;48.388;10.928;2022-08-01T05:17:01;2.30;;;2.10;;
17193;SDS011;8713;48.388;10.928;2022-08-01T05:18:12;2.75;;;2.03;;
17193;SDS011;8713;48.388;10.928;2022-08-01T05:19:22;3.20;;;2.10;;
17193;SDS011;8713;48.388;10.928;2022-08-01T05:20:31;2.58;;;1.73;;
17193;SDS011;8713;48.388;10.928;2022-08-01T05:21:41;6.35;;;1.90;;
17193;SDS011;8713;48.388;10.928;2022-08-01T05:22:50;3.72;;;2.00;;
17193;SDS011;8713;48.388;10.928;2022-08-01T05:24:00;4.00;;;1.90;;
17193;SDS011;8713;48.388;10.928;2022-08-01T05:25:09;4.15;;;2.00;;
17193;SDS011;8713;48.388;10.928;2022-08-01T05:26:19;2.42;;;1.80;;
17193;SDS011;8713;48.388;10.928;2022-08-01T05:27:28;3.20;;;2.05;;
17193;SDS011;8713;48.388;10.928;2022-08-01T05:28:38;3.40;;;1.80;;
17193;SDS011;8713;48.388;10.928;2022-08-01T05:29:48;2.63;;;2.00;;
17193;SDS011;8713;48.388;10.928;2022-08-01T05:30:57;3.75;;;2.05;;
17193;SDS011;8713;48.388;10.928;2022-08-01T05:32:07;3.03;;;1.75;;
17193;SDS011;8713;48.388;10.928;2022-08-01T05:33:16;2.83;;;1.98;;
17193;SDS011;8713;48.388;10.928;2022-08-01T05:34:26;3.95;;;2.08;;
17193;SDS011;8713;48.388;10.928;2022-08-01T05:35:36;3.95;;;2.00;;
17193;SDS011;8713;48.388;10.928;2022-08-01T05:36:46;3.30;;;2.10;;
17193;SDS011;8713;48.388;10.928;2022-08-01T05:37:55;2.70;;;2.00;;
17193;SDS011;8713;48.388;10.928;2022-08-01T05:39:05;2.42;;;1.77;;
17193;SDS011;8713;48.388;10.928;2022-08-01T05:40:14;2.90;;;1.98;;
17193;SDS011;8713;48.388;10.928;2022-08-01T05:41:24;2.45;;;1.90;;
17193;SDS011;8713;48.388;10.928;2022-08-01T05:42:33;3.40;;;2.15;;
17193;SDS011;8713;48.388;10.928;2022-08-01T05:43:43;4.90;;;2.10;;
17193;SDS011;8713;48.388;10.928;2022-08-01T05:44:52;2.63;;;1.90;;
17193;SDS011;8713;48.388;10.928;2022-08-01T05:46:02;2.00;;;1.80;;
17193;SDS011;8713;48.388;10.928;2022-08-01T05:47:12;3.05;;;2.00;;
17193;SDS011;8713;48.388;10.928;2022-08-01T05:48:21;3.22;;;1.60;;
17193;SDS011;8713;48.388;10.928;2022-08-01T05:49:31;3.60;;;1.88;;
17193;SDS011;8713;48.388;10.928;2022-08-01T05:50:40;4.60;;;1.90;;
17193;SDS011;8713;48.388;10.928;2022-08-01T05:51:50;2.10;;;1.60;;
17193;SDS011;8713;48.388;10.928;2022-08-01T05:52:59;2.20;;;1.70;;
17193;SDS011;8713;48.388;10.928;2022-08-01T05:54:09;2.30;;;1.73;;
17193;SDS011;8713;48.388;10.928;2022-08-01T05:55:18;4.15;;;1.95;;
17193;SDS011;8713;48.388;10.928;2022-08-01T05:56:28;2.00;;;1.67;;
17193;SDS011;8713;48.388;10.928;2022-08-01T05:57:37;2.80;;;1.92;;
17193;SDS011;8713;48.388;10.928;2022-08-01T05:58:47;3.42;;;2.00;;
17193;SDS011;8713;48.388;10.928;2022-08-01T05:59:58;2.53;;;1.63;;
17193;SDS011;8713;48.388;10.928;2022-08-01T06:01:07;3.42;;;2.10;;
17193;SDS011;8713;48.388;10.928;2022-08-01T06:02:17;1.85;;;1.60;;
17193;SDS011;8713;48.388;10.928;2022-08-01T06:03:27;2.95;;;2.00;;
17193;SDS011;8713;48.388;10.928;2022-08-01T06:04:39;3.67;;;1.98;;
17193;SDS011;8713;48.388;10.928;2022-08-01T06:05:50;2.58;;;1.80;;
17193;SDS011;8713;48.388;10.928;2022-08-01T06:07:00;3.33;;;2.00;;
17193;SDS011;8713;48.388;10.928;2022-08-01T06:08:10;3.25;;;1.92;;
17193;SDS011;8713;48.388;10.928;2022-08-01T06:09:19;3.55;;;2.13;;
17193;SDS011;8713;48.388;10.928;2022-08-01T06:10:29;3.22;;;1.70;;
17193;SDS011;8713;48.388;10.928;2022-08-01T06:11:38;2.35;;;1.75;;
17193;SDS011;8713;48.388;10.928;2022-08-01T06:12:48;2.05;;;1.80;;
17193;SDS011;8713;48.388;10.928;2022-08-01T06:13:57;3.00;;;1.90;;
17193;SDS011;8713;48.388;10.928;2022-08-01T06:15:07;2.15;;;1.70;;
17193;SDS011;8713;48.388;10.928;2022-08-01T06:16:17;2.42;;;1.77;;
17193;SDS011;8713;48.388;10.928;2022-08-01T06:17:26;3.95;;;1.85;;
17193;SDS011;8713;48.388;10.928;2022-08-01T06:18:36;2.95;;;1.88;;
17193;SDS011;8713;48.388;10.928;2022-08-01T06:19:45;4.25;;;1.65;;
17193;SDS011;8713;48.388;10.928;2022-08-01T06:20:55;2.55;;;1.77;;
17193;SDS011;8713;48.388;10.928;2022-08-01T06:22:04;2.83;;;1.90;;
17193;SDS011;8713;48.388;10.928;2022-08-01T06:23:14;3.33;;;1.80;;
17193;SDS011;8713;48.388;10.928;2022-08-01T06:24:24;3.38;;;1.85;;
17193;SDS011;8713;48.388;10.928;2022-08-01T06:25:34;3.28;;;1.70;;
17193;SDS011;8713;48.388;10.928;2022-08-01T06:26:43;4.07;;;1.90;;
17193;SDS011;8713;48.388;10.928;2022-08-01T06:27:53;2.42;;;1.70;;
17193;SDS011;8713;48.388;10.928;2022-08-01T06:29:03;3.85;;;1.60;;
17193;SDS011;8713;48.388;10.928;2022-08-01T06:30:13;3.33;;;1.90;;
17193;SDS011;8713;48.388;10.928;2022-08-01T06:31:22;3.80;;;1.67;;
17193;SDS011;8713;48.388;10.928;2022-08-01T06:32:31;1.90;;;1.50;;
17193;SDS011;8713;48.388;10.928;2022-08-01T06:33:41;3.03;;;1.88;;
17193;SDS011;8713;48.388;10.928;2022-08-01T06:34:50;2.35;;;1.58;;
17193;SDS011;8713;48.388;10.928;2022-08-01T06:36:00;3.55;;;1.77;;
17193;SDS011;8713;48.388;10.928;2022-08-01T06:37:09;3.75;;;1.67;;
17193;SDS011;8713;48.388;10.928;2022-08-01T06:38:22;2.75;;;1.70;;
17193;SDS011;8713;48.388;10.928;2022-08-01T06:39:32;2.10;;;1.73;;
17193;SDS011;8713;48.388;10.928;2022-08-01T06:40:42;2.38;;;1.73;;
17193;SDS011;8713;48.388;10.928;2022-08-01T06:41:52;2.25;;;1.90;;
17193;SDS011;8713;48.388;10.928;2022-08-01T06:43:01;3.15;;;1.60;;
17193;SDS011;8713;48.388;10.928;2022-08-01T06:44:11;2.65;;;1.70;;
17193;SDS011;8713;48.388;10.928;2022-08-01T06:45:21;3.13;;;1.92;;
17193;SDS011;8713;48.388;10.928;2022-08-01T06:46:34;2.22;;;1.60;;
17193;SDS011;8713;48.388;10.928;2022-08-01T06:47:44;2.58;;;1.60;;
17193;SDS011;8713;48.388;10.928;2022-08-01T06:48:53;6.32;;;1.83;;
17193;SDS011;8713;48.388;10.928;2022-08-01T06:50:03;3.55;;;1.60;;
17193;SDS011;8713;48.388;10.928;2022-08-01T06:51:14;3.17;;;1.80;;
17193;SDS011;8713;48.388;10.928;2022-08-01T06:52:26;2.60;;;1.60;;
17193;SDS011;8713;48.388;10.928;2022-08-01T06:53:36;2.80;;;1.80;;
17193;SDS011;8713;48.388;10.928;2022-08-01T06:54:46;2.75;;;1.80;;
17193;SDS011;8713;48.388;10.928;2022-08-01T06:55:55;2.40;;;1.70;;
17193;SDS011;8713;48.388;10.928;2022-08-01T06:57:05;2.20;;;1.70;;
17193;SDS011;8713;48.388;10.928;2022-08-01T06:58:14;3.20;;;1.73;;
17193;SDS011;8713;48.388;10.928;2022-08-01T06:59:24;2.97;;;2.13;;
17193;SDS011;8713;48.388;10.928;2022-08-01T07:00:34;2.72;;;1.90;;
17193;SDS011;8713;48.388;10.928;2022-08-01T07:01:43;5.25;;;1.90;;
17193;SDS011;8713;48.388;10.928;2022-08-01T07:02:53;2.53;;;1.73;;
17193;SDS011;8713;48.388;10.928;2022-08-01T07:04:05;3.78;;;1.90;;
17193;SDS011;8713;48.388;10.928;2022-08-01T07:05:15;2.20;;;1.85;;
17193;SDS011;8713;48.388;10.928;2022-08-01T07:06:24;2.17;;;1.58;;
17193;SDS011;8713;48.388;10.928;2022-08-01T07:07:34;1.77;;;1.60;;
17193;SDS011;8713;48.388;10.928;2022-08-01T07:08:43;3.08;;;1.85;;
17193;SDS011;8713;48.388;10.928;2022-08-01T07:09:53;2.10;;;1.63;;
17193;SDS011;8713;48.388;10.928;2022-08-01T07:11:03;2.28;;;1.70;;
17193;SDS011;8713;48.388;10.928;2022-08-01T07:12:12;2.47;;;1.70;;
17193;SDS011;8713;48.388;10.928;2022-08-01T07:13:22;2.03;;;1.60;;
17193;SDS011;8713;48.388;10.928;2022-08-01T07:14:33;2.28;;;1.70;;
17193;SDS011;8713;48.388;10.928;2022-08-01T07:15:42;3.85;;;1.73;;
17193;SDS011;8713;48.388;10.928;2022-08-01T07:16:52;2.15;;;1.80;;
17193;SDS011;8713;48.388;10.928;2022-08-01T07:18:02;2.35;;;1.75;;
17193;SDS011;8713;48.388;10.928;2022-08-01T07:19:12;4.47;;;2.10;;
17193;SDS011;8713;48.388;10.928;2022-08-01T07:20:22;2.97;;;1.80;;
17193;SDS011;8713;48.388;10.928;2022-08-01T07:21:31;2.00;;;1.70;;
17193;SDS011;8713;48.388;10.928;2022-08-01T07:22:41;4.03;;;2.10;;
17193;SDS011;8713;48.388;10.928;2022-08-01T07:23:50;3.25;;;2.10;;
17193;SDS011;8713;48.388;10.928;2022-08-01T07:25:00;3.60;;;1.83;;
17193;SDS011;8713;48.388;10.928;2022-08-01T07:26:09;2.65;;;1.83;;
17193;SDS011;8713;48.388;10.928;2022-08-01T07:27:19;2.78;;;1.75;;
17193;SDS011;8713;48.388;10.928;2022-08-01T07:28:28;1.88;;;1.65;;
17193;SDS011;8713;48.388;10.928;2022-08-01T07:29:38;3.75;;;1.85;;
17193;SDS011;8713;48.388;10.928;2022-08-01T07:30:48;4.07;;;2.05;;
17193;SDS011;8713;48.388;10.928;2022-08-01T07:31:57;4.57;;;1.80;;
17193;SDS011;8713;48.388;10.928;2022-08-01T07:33:07;2.70;;;2.15;;
17193;SDS011;8713;48.388;10.928;2022-08-01T07:34:17;2.92;;;1.75;;
17193;SDS011;8713;48.388;10.928;2022-08-01T07:35:26;3.63;;;1.85;;
17193;SDS011;8713;48.388;10.928;2022-08-01T07:36:36;3.00;;;1.67;;
17193;SDS011;8713;48.388;10.928;2022-08-01T07:37:45;2.35;;;1.83;;
17193;SDS011;8713;48.388;10.928;2022-08-01T07:38:55;5.05;;;1.67;;
17193;SDS011;8713;48.388;10.928;2022-08-01T07:40:04;2.08;;;1.60;;
17193;SDS011;8713;48.388;10.928;2022-08-01T07:41:14;3.50;;;2.15;;
17193;SDS011;8713;48.388;10.928;2022-08-01T07:42:24;2.65;;;1.88;;
17193;SDS011;8713;48.388;10.928;2022-08-01T07:43:33;2.15;;;1.73;;
17193;SDS011;8713;48.388;10.928;2022-08-01T07:44:44;2.80;;;1.58;;
17193;SDS011;8713;48.388;10.928;2022-08-01T07:45:54;3.75;;;1.70;;
17193;SDS011;8713;48.388;10.928;2022-08-01T07:47:03;3.33;;;1.92;;
17193;SDS011;8713;48.388;10.928;2022-08-01T07:48:13;2.72;;;1.70;;
17193;SDS011;8713;48.388;10.928;2022-08-01T07:49:23;3.35;;;1.90;;
17193;SDS011;8713;48.388;10.928;2022-08-01T07:50:33;2.35;;;1.75;;
17193;SDS011;8713;48.388;10.928;2022-08-01T07:51:42;1.92;;;1.70;;
17193;SDS011;8713;48.388;10.928;2022-08-01T07:52:52;3.00;;;1.90;;
17193;SDS011;8713;48.388;10.928;2022-08-01T07:54:01;4.03;;;1.83;;
17193;SDS011;8713;48.388;10.928;2022-08-01T07:55:11;3.13;;;1.55;;
17193;SDS011;8713;48.388;10.928;2022-08-01T07:56:20;4.43;;;1.90;;
17193;SDS011;8713;48.388;10.928;2022-08-01T07:57:32;3.15;;;1.80;;
17193;SDS011;8713;48.388;10.928;2022-08-01T07:58:42;3.15;;;1.83;;
17193;SDS011;8713;48.388;10.928;2022-08-01T07:59:51;2.20;;;1.73;;
17193;SDS011;8713;48.388;10.928;2022-08-01T08:01:01;3.72;;;1.55;;
17193;SDS011;8713;48.388;10.928;2022-08-01T08:02:10;3.55;;;1.70;;
17193;SDS011;8713;48.388;10.928;2022-08-01T08:03:20;2.50;;;1.67;;
17193;SDS011;8713;48.388;10.928;2022-08-01T08:04:29;3.97;;;1.70;;
17193;SDS011;8713;48.388;10.928;2022-08-01T08:05:39;1.63;;;1.42;;
17193;SDS011;8713;48.388;10.928;2022-08-01T08:06:48;3.28;;;1.70;;
17193;SDS011;8713;48.388;10.928;2022-08-01T08:07:58;4.95;;;1.63;;
17193;SDS011;8713;48.388;10.928;2022-08-01T08:09:08;2.03;;;1.85;;
17193;SDS011;8713;48.388;10.928;2022-08-01T08:10:17;1.45;;;1.35;;
17193;SDS011;8713;48.388;10.928;2022-08-01T08:11:27;1.65;;;1.50;;
17193;SDS011;8713;48.388;10.928;2022-08-01T08:12:36;1.88;;;1.40;;
17193;SDS011;8713;48.388;10.928;2022-08-01T08:13:46;4.88;;;1.60;;
17193;SDS011;8713;48.388;10.928;2022-08-01T08:14:56;2.35;;;1.60;;
17193;SDS011;8713;48.388;10.928;2022-08-01T08:16:07;2.15;;;1.45;;
17193;SDS011;8713;48.388;10.928;2022-08-01T08:17:16;2.08;;;1.30;;
17193;SDS011;8713;48.388;10.928;2022-08-01T08:18:26;1.55;;;1.30;;
17193;SDS011;8713;48.388;10.928;2022-08-01T08:19:35;2.53;;;1.65;;
17193;SDS011;8713;48.388;10.928;2022-08-01T08:20:47;3.17;;;1.60;;
17193;SDS011;8713;48.388;10.928;2022-08-01T08:21:56;2.05;;;1.35;;
17193;SDS011;8713;48.388;10.928;2022-08-01T08:23:06;3.40;;;1.50;;
17193;SDS011;8713;48.388;10.928;2022-08-01T08:24:35;3.00;;;1.60;;
17193;SDS011;8713;48.388;10.928;2022-08-01T08:25:45;3.03;;;1.40;;
17193;SDS011;8713;48.388;10.928;2022-08-01T08:26:58;2.72;;;1.52;;
17193;SDS011;8713;48.388;10.928;2022-08-01T08:28:09;2.78;;;1.38;;
17193;SDS011;8713;48.388;10.928;2022-08-01T08:29:19;2.15;;;1.27;;
17193;SDS011;8713;48.388;10.928;2022-08-01T08:30:29;1.40;;;1.25;;
17193;SDS011;8713;48.388;10.928;2022-08-01T08:31:39;2.00;;;1.60;;
17193;SDS011;8713;48.388;10.928;2022-08-01T08:32:48;2.63;;;1.50;;
17193;SDS011;8713;48.388;10.928;2022-08-01T08:33:58;2.30;;;1.50;;
17193;SDS011;8713;48.388;10.928;2022-08-01T08:35:07;2.58;;;1.30;;
17193;SDS011;8713;48.388;10.928;2022-08-01T08:36:17;3.08;;;1.40;;
17193;SDS011;8713;48.388;10.928;2022-08-01T08:37:26;1.67;;;1.20;;
17193;SDS011;8713;48.388;10.928;2022-08-01T08:38:36;2.08;;;1.35;;
17193;SDS011;8713;48.388;10.928;2022-08-01T08:39:45;1.70;;;1.35;;
17193;SDS011;8713;48.388;10.928;2022-08-01T08:40:54;3.50;;;1.30;;
17193;SDS011;8713;48.388;10.928;2022-08-01T08:42:08;1.30;;;1.20;;
17193;SDS011;8713;48.388;10.928;2022-08-01T08:43:19;1.80;;;1.30;;
17193;SDS011;8713;48.388;10.928;2022-08-01T08:44:29;1.88;;;1.27;;
17193;SDS011;8713;48.388;10.928;2022-08-01T08:45:38;3.95;;;1.35;;
17193;SDS011;8713;48.388;10.928;2022-08-01T08:46:49;1.88;;;1.13;;
17193;SDS011;8713;48.388;10.928;2022-08-01T08:48:00;1.63;;;1.33;;
17193;SDS011;8713;48.388;10.928;2022-08-01T08:49:10;1.45;;;1.15;;
17193;SDS011;8713;48.388;10.928;2022-08-01T08:50:20;3.33;;;1.40;;
17193;SDS011;8713;48.388;10.928;2022-08-01T08:51:30;1.88;;;1.20;;
17193;SDS011;8713;48.388;10.928;2022-08-01T08:52:40;2.08;;;1.30;;
17193;SDS011;8713;48.388;10.928;2022-08-01T08:53:51;2.72;;;1.00;;
17193;SDS011;8713;48.388;10.928;2022-08-01T08:55:03;1.45;;;1.23;;
17193;SDS011;8713;48.388;10.928;2022-08-01T08:56:14;2.10;;;1.20;;
17193;SDS011;8713;48.388;10.928;2022-08-01T08:57:24;2.40;;;1.23;;
17193;SDS011;8713;48.388;10.928;2022-08-01T08:58:33;3.33;;;1.10;;
17193;SDS011;8713;48.388;10.928;2022-08-01T08:59:46;4.22;;;1.30;;
17193;SDS011;8713;48.388;10.928;2022-08-01T09:00:56;1.20;;;1.00;;
17193;SDS011;8713;48.388;10.928;2022-08-01T09:02:07;2.45;;;1.10;;
17193;SDS011;8713;48.388;10.928;2022-08-01T09:03:17;1.30;;;1.00;;
17193;SDS011;8713;48.388;10.928;2022-08-01T09:04:27;2.83;;;1.17;;
17193;SDS011;8713;48.388;10.928;2022-08-01T09:05:36;3.95;;;1.20;;
17193;SDS011;8713;48.388;10.928;2022-08-01T09:06:46;1.85;;;1.20;;
17193;SDS011;8713;48.388;10.928;2022-08-01T09:07:56;2.05;;;1.10;;
17193;SDS011;8713;48.388;10.928;2022-08-01T09:09:06;1.88;;;1.30;;
17193;SDS011;8713;48.388;10.928;2022-08-01T09:10:16;2.50;;;0.98;;
17193;SDS011;8713;48.388;10.928;2022-08-01T09:11:25;3.55;;;1.30;;
17193;SDS011;8713;48.388;10.928;2022-08-01T09:12:36;1.50;;;1.20;;
17193;SDS011;8713;48.388;10.928;2022-08-01T09:14:03;3.03;;;1.30;;
17193;SDS011;8713;48.388;10.928;2022-08-01T09:15:17;1.80;;;1.20;;
17193;SDS011;8713;48.388;10.928;2022-08-01T09:16:26;1.50;;;0.93;;
17193;SDS011;8713;48.388;10.928;2022-08-01T09:17:39;2.72;;;1.10;;
17193;SDS011;8713;48.388;10.928;2022-08-01T09:18:50;4.05;;;1.30;;
17193;SDS011;8713;48.388;10.928;2022-08-01T09:19:59;1.33;;;1.05;;
17193;SDS011;8713;48.388;10.928;2022-08-01T09:21:09;2.65;;;0.98;;
17193;SDS011;8713;48.388;10.928;2022-08-01T09:22:23;2.55;;;1.25;;
17193;SDS011;8713;48.388;10.928;2022-08-01T09:23:33;1.75;;;1.10;;
17193;SDS011;8713;48.388;10.928;2022-08-01T09:26:17;1.83;;;1.20;;
17193;SDS011;8713;48.388;10.928;2022-08-01T09:27:39;2.70;;;1.30;;
17193;SDS011;8713;48.388;10.928;2022-08-01T09:28:49;1.63;;;1.20;;
17193;SDS011;8713;48.388;10.928;2022-08-01T09:30:08;1.88;;;1.20;;
17193;SDS011;8713;48.388;10.928;2022-08-01T09:31:26;2.65;;;1.10;;
17193;SDS011;8713;48.388;10.928;2022-08-01T09:34:11;1.83;;;1.00;;
17193;SDS011;8713;48.388;10.928;2022-08-01T09:35:25;1.73;;;1.17;;
17193;SDS011;8713;48.388;10.928;2022-08-01T09:36:43;1.73;;;1.10;;
17193;SDS011;8713;48.388;10.928;2022-08-01T09:38:16;1.88;;;1.00;;
17193;SDS011;8713;48.388;10.928;2022-08-01T09:39:28;2.53;;;1.27;;
17193;SDS011;8713;48.388;10.928;2022-08-01T09:40:43;3.28;;;1.50;;
17193;SDS011;8713;48.388;10.928;2022-08-01T09:42:01;2.08;;;1.15;;
17193;SDS011;8713;48.388;10.928;2022-08-01T09:43:29;5.32;;;1.00;;
17193;SDS011;8713;48.388;10.928;2022-08-01T09:44:41;3.15;;;1.08;;
17193;SDS011;8713;48.388;10.928;2022-08-01T09:45:52;1.65;;;1.17;;
17193;SDS011;8713;48.388;10.928;2022-08-01T09:47:02;1.60;;;1.20;;
17193;SDS011;8713;48.388;10.928;2022-08-01T09:48:11;1.63;;;1.02;;
17193;SDS011;8713;48.388;10.928;2022-08-01T09:49:28;1.42;;;0.95;;
17193;SDS011;8713;48.388;10.928;2022-08-01T09:50:44;1.60;;;1.10;;
17193;SDS011;8713;48.388;10.928;2022-08-01T09:51:55;2.88;;;1.17;;
17193;SDS011;8713;48.388;10.928;2022-08-01T09:53:06;1.48;;;1.00;;
17193;SDS011;8713;48.388;10.928;2022-08-01T09:54:15;1.33;;;0.98;;
17193;SDS011;8713;48.388;10.928;2022-08-01T09:55:41;1.70;;;0.93;;
17193;SDS011;8713;48.388;10.928;2022-08-01T09:56:53;3.53;;;1.00;;
17193;SDS011;8713;48.388;10.928;2022-08-01T09:58:03;2.60;;;1.10;;
17193;SDS011;8713;48.388;10.928;2022-08-01T09:59:13;1.55;;;1.00;;
17193;SDS011;8713;48.388;10.928;2022-08-01T10:00:23;2.65;;;1.20;;
17193;SDS011;8713;48.388;10.928;2022-08-01T10:01:45;1.33;;;1.00;;
17193;SDS011;8713;48.388;10.928;2022-08-01T10:02:59;1.23;;;1.10;;
17193;SDS011;8713;48.388;10.928;2022-08-01T10:04:10;2.88;;;1.30;;
17193;SDS011;8713;48.388;10.928;2022-08-01T10:05:34;1.33;;;1.13;;
17193;SDS011;8713;48.388;10.928;2022-08-01T10:06:45;1.40;;;1.10;;
17193;SDS011;8713;48.388;10.928;2022-08-01T10:08:07;1.25;;;1.00;;
17193;SDS011;8713;48.388;10.928;2022-08-01T10:09:25;2.50;;;1.10;;
17193;SDS011;8713;48.388;10.928;2022-08-01T10:10:37;1.67;;;0.93;;
17193;SDS011;8713;48.388;10.928;2022-08-01T10:11:46;1.33;;;1.08;;
17193;SDS011;8713;48.388;10.928;2022-08-01T10:12:56;2.08;;;1.02;;
17193;SDS011;8713;48.388;10.928;2022-08-01T10:14:07;2.05;;;1.10;;
17193;SDS011;8713;48.388;10.928;2022-08-01T10:15:17;1.98;;;1.10;;
17193;SDS011;8713;48.388;10.928;2022-08-01T10:16:29;1.35;;;1.10;;
17193;SDS011;8713;48.388;10.928;2022-08-01T10:17:39;3.05;;;1.08;;
17193;SDS011;8713;48.388;10.928;2022-08-01T10:18:49;1.45;;;1.10;;
17193;SDS011;8713;48.388;10.928;2022-08-01T10:19:59;1.77;;;1.10;;
17193;SDS011;8713;48.388;10.928;2022-08-01T10:21:11;1.10;;;1.00;;
17193;SDS011;8713;48.388;10.928;2022-08-01T10:22:22;1.90;;;1.30;;
17193;SDS011;8713;48.388;10.928;2022-08-01T10:23:34;1.20;;;1.10;;
17193;SDS011;8713;48.388;10.928;2022-08-01T10:24:47;2.03;;;1.10;;
17193;SDS011;8713;48.388;10.928;2022-08-01T10:25:56;1.98;;;1.00;;
17193;SDS011;8713;48.388;10.928;2022-08-01T10:27:07;1.20;;;1.10;;
17193;SDS011;8713;48.388;10.928;2022-08-01T10:28:18;2.15;;;0.95;;
17193;SDS011;8713;48.388;10.928;2022-08-01T10:29:28;2.85;;;1.10;;
17193;SDS011;8713;48.388;10.928;2022-08-01T10:31:01;1.15;;;1.05;;
17193;SDS011;8713;48.388;10.928;2022-08-01T10:32:10;1.95;;;1.00;;
17193;SDS011;8713;48.388;10.928;2022-08-01T10:33:22;1.55;;;0.98;;
17193;SDS011;8713;48.388;10.928;2022-08-01T10:34:33;1.30;;;0.93;;
17193;SDS011;8713;48.388;10.928;2022-08-01T10:35:45;3.35;;;1.20;;
17193;SDS011;8713;48.388;10.928;2022-08-01T10:36:54;1.85;;;0.90;;
17193;SDS011;8713;48.388;10.928;2022-08-01T10:38:04;2.35;;;0.98;;
17193;SDS011;8713;48.388;10.928;2022-08-01T10:39:14;1.52;;;1.02;;
17193;SDS011;8713;48.388;10.928;2022-08-01T10:40:24;1.92;;;0.90;;
17193;SDS011;8713;48.388;10.928;2022-08-01T10:41:33;1.67;;;0.90;;
17193;SDS011;8713;48.388;10.928;2022-08-01T10:42:44;1.00;;;0.90;;
17193;SDS011;8713;48.388;10.928;2022-08-01T10:43:54;1.92;;;0.98;;
17193;SDS011;8713;48.388;10.928;2022-08-01T10:45:04;1.30;;;1.00;;
17193;SDS011;8713;48.388;10.928;2022-08-01T10:46:13;1.30;;;1.00;;
17193;SDS011;8713;48.388;10.928;2022-08-01T10:47:23;1.35;;;1.02;;
17193;SDS011;8713;48.388;10.928;2022-08-01T10:51:36;1.85;;;0.90;;
17193;SDS011;8713;48.388;10.928;2022-08-01T10:54:15;1.48;;;0.70;;
17193;SDS011;8713;48.388;10.928;2022-08-01T10:55:24;2.17;;;1.20;;
17193;SDS011;8713;48.388;10.928;2022-08-01T10:56:48;2.50;;;0.95;;
17193;SDS011;8713;48.388;10.928;2022-08-01T10:57:59;1.65;;;1.10;;
17193;SDS011;8713;48.388;10.928;2022-08-01T10:59:20;1.55;;;1.00;;
17193;SDS011;8713;48.388;10.928;2022-08-01T11:00:37;3.55;;;1.17;;
17193;SDS011;8713;48.388;10.928;2022-08-01T11:02:03;2.65;;;1.30;;
17193;SDS011;8713;48.388;10.928;2022-08-01T11:03:13;2.13;;;0.90;;
17193;SDS011;8713;48.388;10.928;2022-08-01T11:04:31;1.55;;;0.93;;
17193;SDS011;8713;48.388;10.928;2022-08-01T11:05:43;1.05;;;0.90;;
17193;SDS011;8713;48.388;10.928;2022-08-01T11:07:02;1.80;;;1.05;;
17193;SDS011;8713;48.388;10.928;2022-08-01T11:08:22;1.30;;;1.00;;
17193;SDS011;8713;48.388;10.928;2022-08-01T11:11:00;2.15;;;1.23;;
17193;SDS011;8713;48.388;10.928;2022-08-01T11:12:11;2.47;;;1.20;;
17193;SDS011;8713;48.388;10.928;2022-08-01T11:15:20;2.58;;;0.90;;
17193;SDS011;8713;48.388;10.928;2022-08-01T11:16:34;3.92;;;1.00;;
17193;SDS011;8713;48.388;10.928;2022-08-01T11:17:45;0.88;;;0.80;;
17193;SDS011;8713;48.388;10.928;2022-08-01T11:18:59;3.17;;;0.90;;
17193;SDS011;8713;48.388;10.928;2022-08-01T11:21:54;0.93;;;0.80;;
17193;SDS011;8713;48.388;10.928;2022-08-01T11:24:09;3.63;;;1.10;;
17193;SDS011;8713;48.388;10.928;2022-08-01T11:25:19;1.20;;;1.10;;
17193;SDS011;8713;48.388;10.928;2022-08-01T11:26:28;1.55;;;1.00;;
17193;SDS011;8713;48.388;10.928;2022-08-01T11:27:37;5.32;;;1.23;;
17193;SDS011;8713;48.388;10.928;2022-08-01T11:29:10;1.70;;;1.15;;
17193;SDS011;8713;48.388;10.928;2022-08-01T11:30:21;1.88;;;1.17;;
17193;SDS011;8713;48.388;10.928;2022-08-01T11:31:31;1.50;;;0.93;;
17193;SDS011;8713;48.388;10.928;2022-08-01T11:32:46;1.20;;;1.05;;
17193;SDS011;8713;48.388;10.928;2022-08-01T11:34:00;1.23;;;0.93;;
17193;SDS011;8713;48.388;10.928;2022-08-01T11:35:10;1.05;;;1.00;;
17193;SDS011;8713;48.388;10.928;2022-08-01T11:36:19;1.67;;;1.00;;
17193;SDS011;8713;48.388;10.928;2022-08-01T11:37:29;2.95;;;1.30;;
17193;SDS011;8713;48.388;10.928;2022-08-01T11:38:39;1.10;;;1.00;;
17193;SDS011;8713;48.388;10.928;2022-08-01T11:41:42;1.23;;;1.02;;
17193;SDS011;8713;48.388;10.928;2022-08-01T11:44:21;2.08;;;1.30;;
17193;SDS011;8713;48.388;10.928;2022-08-01T11:45:46;1.35;;;1.15;;
17193;SDS011;8713;48.388;10.928;2022-08-01T11:48:20;1.77;;;1.05;;
17193;SDS011;8713;48.388;10.928;2022-08-01T11:50:45;1.10;;;1.00;;
17193;SDS011;8713;48.388;10.928;2022-08-01T11:53:45;1.50;;;1.10;;
17193;SDS011;8713;48.388;10.928;2022-08-01T11:55:05;1.92;;;1.10;;
17193;SDS011;8713;48.388;10.928;2022-08-01T11:56:17;1.98;;;1.17;;
17193;SDS011;8713;48.388;10.928;2022-08-01T11:57:28;2.88;;;1.13;;
17193;SDS011;8713;48.388;10.928;2022-08-01T11:58:42;4.55;;;1.20;;
17193;SDS011;8713;48.388;10.928;2022-08-01T11:59:53;3.35;;;1.00;;
17193;SDS011;8713;48.388;10.928;2022-08-01T12:01:04;2.58;;;1.10;;
17193;SDS011;8713;48.388;10.928;2022-08-01T12:02:19;2.03;;;1.33;;
17193;SDS011;8713;48.388;10.928;2022-08-01T12:03:39;3.95;;;1.50;;
17193;SDS011;8713;48.388;10.928;2022-08-01T12:04:49;1.30;;;1.10;;
17193;SDS011;8713;48.388;10.928;2022-08-01T12:06:03;1.55;;;1.30;;
17193;SDS011;8713;48.388;10.928;2022-08-01T12:07:13;2.83;;;1.30;;
17193;SDS011;8713;48.388;10.928;2022-08-01T12:08:25;1.73;;;1.20;;
17193;SDS011;8713;48.388;10.928;2022-08-01T12:09:35;1.95;;;1.48;;
17193;SDS011;8713;48.388;10.928;2022-08-01T12:10:49;1.60;;;1.00;;
17193;SDS011;8713;48.388;10.928;2022-08-01T12:11:58;2.60;;;1.20;;
17193;SDS011;8713;48.388;10.928;2022-08-01T12:13:08;1.70;;;1.20;;
17193;SDS011;8713;48.388;10.928;2022-08-01T12:14:18;1.73;;;1.23;;
17193;SDS011;8713;48.388;10.928;2022-08-01T12:15:29;2.53;;;1.25;;
17193;SDS011;8713;48.388;10.928;2022-08-01T12:16:51;3.35;;;1.30;;
17193;SDS011;8713;48.388;10.928;2022-08-01T12:18:21;3.92;;;1.17;;
17193;SDS011;8713;48.388;10.928;2022-08-01T12:19:30;1.95;;;1.00;;
17193;SDS011;8713;48.388;10.928;2022-08-01T12:20:41;3.38;;;1.30;;
17193;SDS011;8713;48.388;10.928;2022-08-01T12:22:08;1.77;;;1.20;;
17193;SDS011;8713;48.388;10.928;2022-08-01T12:23:22;2.17;;;1.42;;
17193;SDS011;8713;48.388;10.928;2022-08-01T12:24:32;1.73;;;1.30;;
17193;SDS011;8713;48.388;10.928;2022-08-01T12:25:43;2.38;;;1.15;;
17193;SDS011;8713;48.388;10.928;2022-08-01T12:26:53;1.58;;;1.00;;
17193;SDS011;8713;48.388;10.928;2022-08-01T12:28:03;1.45;;;1.10;;
17193;SDS011;8713;48.388;10.928;2022-08-01T12:29:30;1.48;;;1.27;;
17193;SDS011;8713;48.388;10.928;2022-08-01T12:30:47;2.28;;;1.35;;
17193;SDS011;8713;48.388;10.928;2022-08-01T12:33:34;2.85;;;1.20;;
17193;SDS011;8713;48.388;10.928;2022-08-01T12:34:43;2.70;;;1.17;;
17193;SDS011;8713;48.388;10.928;2022-08-01T12:35:53;3.92;;;1.30;;
17193;SDS011;8713;48.388;10.928;2022-08-01T12:37:02;3.35;;;1.10;;
17193;SDS011;8713;48.388;10.928;2022-08-01T12:38:19;2.53;;;1.13;;
17193;SDS011;8713;48.388;10.928;2022-08-01T12:39:50;1.45;;;1.20;;
17193;SDS011;8713;48.388;10.928;2022-08-01T12:40:59;4.20;;;1.40;;